Time;durP1;ratioP1;P1;durP2;ratioP2;P2;SDS_P1;SDS_P2;PMS_P1;PMS_P2;Temp;Humidity;BMP_temperature;BMP_pressure;BME280_temperature;BME280_humidity;BME280_pressure;Samples;Min_cycle;Max_cycle;Signal;HPM_P1;HPM_P2
2023/07/25 00:01:46;;;;;;;4.15;1.73;;;;;;;27.68;44.81;98893.66;4465273;31;32231;-87
2023/07/25 00:04:14;;;;;;;1.58;1.48;;;;;;;27.22;45.46;98858.91;4472709;32;32012;-87
2023/07/25 00:06:41;;;;;;;2.40;1.33;;;;;;;26.97;45.96;98814.28;4485805;31;34750;-87
2023/07/25 00:09:09;;;;;;;0.75;0.73;;;;;;;27.78;44.45;98807.34;4475137;31;33127;-86
2023/07/25 00:11:36;;;;;;;1.25;1.12;;;;;;;28.00;44.05;98813.47;4499263;31;33205;-86
2023/07/25 00:14:04;;;;;;;1.98;1.37;;;;;;;28.37;42.94;98808.62;4494131;31;33964;-86
2023/07/25 00:16:31;;;;;;;0.43;0.37;;;;;;;27.98;43.71;98803.87;4488122;31;32519;-86
2023/07/25 00:18:59;;;;;;;0.65;0.50;;;;;;;27.77;44.27;98813.81;4475061;31;34362;-86
2023/07/25 00:21:27;;;;;;;1.50;0.57;;;;;;;27.61;44.84;98824.94;4488098;31;32526;-86
2023/07/25 00:23:54;;;;;;;0.52;0.50;;;;;;;27.54;44.84;98837.66;4474919;31;32704;-87
2023/07/25 00:26:22;;;;;;;0.77;0.77;;;;;;;27.65;44.52;98831.66;4500848;31;33939;-87
2023/07/25 00:28:50;;;;;;;10.50;2.03;;;;;;;27.77;44.11;98824.66;4478649;32;33667;-86
2023/07/25 00:31:17;;;;;;;1.20;0.85;;;;;;;27.75;44.44;98842.16;4467839;32;32550;-87
2023/07/25 00:33:45;;;;;;;0.50;0.37;;;;;;;27.63;44.83;98850.03;4479950;31;32728;-86
2023/07/25 00:36:13;;;;;;;0.98;0.98;;;;;;;27.72;44.72;98854.25;4477836;31;33147;-86
2023/07/25 00:38:40;;;;;;;2.60;1.73;;;;;;;27.60;44.97;98877.53;4478578;31;33156;-86
2023/07/25 00:41:08;;;;;;;3.78;1.45;;;;;;;27.39;45.27;98891.13;4478756;31;32398;-86
2023/07/25 00:43:36;;;;;;;1.25;0.80;;;;;;;27.45;45.47;98904.75;4492765;31;33958;-86
2023/07/25 00:46:04;;;;;;;0.73;0.70;;;;;;;27.44;45.26;98918.47;4479420;31;32660;-86
2023/07/25 00:48:32;;;;;;;1.12;0.40;;;;;;;27.46;45.59;98919.97;4479063;31;34133;-86
2023/07/25 00:51:00;;;;;;;1.55;0.70;;;;;;;27.35;45.98;98927.78;4494654;31;34255;-86
2023/07/25 00:53:28;;;;;;;1.25;0.88;;;;;;;27.19;46.59;98940.59;4491183;31;33478;-86
2023/07/25 00:55:55;;;;;;;5.12;1.67;;;;;;;27.16;46.60;98948.28;4467262;31;32758;-87
2023/07/25 00:58:24;;;;;;;0.85;0.65;;;;;;;27.08;46.80;98967.34;4475953;31;34243;-87
2023/07/25 01:00:51;;;;;;;2.35;1.62;;;;;;;26.90;48.12;98994.87;4493363;31;33375;-86
2023/07/25 01:03:19;;;;;;;0.70;0.70;;;;;;;26.58;50.01;99001.56;4481443;31;33726;-86
2023/07/25 01:05:48;;;;;;;0.70;0.70;;;;;;;26.37;51.38;99005.03;4493292;31;36257;-84
2023/07/25 01:08:16;;;;;;;0.45;0.45;;;;;;;25.61;54.92;99005.09;4491912;31;32435;-85
2023/07/25 01:10:44;;;;;;;1.12;1.02;;;;;;;25.44;54.87;99008.97;4478915;31;33042;-84
2023/07/25 01:13:11;;;;;;;2.20;1.40;;;;;;;25.63;56.49;99008.44;4474079;32;32534;-84
2023/07/25 01:15:39;;;;;;;1.85;1.02;;;;;;;25.37;57.73;99018.81;4490115;31;33936;-84
2023/07/25 01:18:08;;;;;;;1.65;0.93;;;;;;;25.39;57.59;99028.41;4468095;31;32181;-85
2023/07/25 01:20:35;;;;;;;9.77;2.28;;;;;;;25.52;57.63;99022.41;4493125;31;33116;-84
2023/07/25 01:23:05;;;;;;;1.73;1.23;;;;;;;25.07;58.87;99016.00;4469871;32;33407;-86
2023/07/25 01:25:34;;;;;;;10.80;1.63;;;;;;;24.44;61.92;99015.09;4478279;32;33982;-85
2023/07/25 01:28:02;;;;;;;1.12;1.02;;;;;;;24.48;61.56;98996.72;4484961;31;33828;-86
2023/07/25 01:30:30;;;;;;;0.95;0.88;;;;;;;24.99;60.30;98984.44;4487114;31;32308;-86
2023/07/25 01:32:58;;;;;;;0.65;0.60;;;;;;;24.70;61.17;98990.53;4486318;31;33051;-85
2023/07/25 01:35:26;;;;;;;1.40;0.82;;;;;;;24.69;61.01;98983.47;4494039;31;34392;-84
2023/07/25 01:37:53;;;;;;;0.43;0.43;;;;;;;24.72;60.31;98977.69;4493143;31;34148;-84
2023/07/25 01:40:21;;;;;;;2.10;1.50;;;;;;;24.95;60.07;98939.06;4466389;32;32609;-84
2023/07/25 01:42:49;;;;;;;0.60;0.60;;;;;;;24.96;59.42;98913.75;4479066;31;33588;-84
2023/07/25 01:45:16;;;;;;;1.98;1.02;;;;;;;24.89;60.37;98885.78;4468836;32;32930;-84
2023/07/25 01:47:44;;;;;;;0.62;0.25;;;;;;;24.91;60.54;98894.53;4488749;31;31995;-85
2023/07/25 01:50:11;;;;;;;0.75;0.52;;;;;;;24.71;62.39;98886.94;4482228;32;32876;-84
2023/07/25 01:52:39;;;;;;;3.83;0.65;;;;;;;25.19;60.50;98865.97;4480361;31;33413;-84
2023/07/25 01:55:08;;;;;;;1.12;0.60;;;;;;;25.41;60.02;98834.50;4468533;31;32549;-84
2023/07/25 01:57:35;;;;;;;0.60;0.45;;;;;;;25.34;60.62;98811.13;4476684;31;34625;-85
2023/07/25 02:00:04;;;;;;;1.52;0.93;;;;;;;25.01;61.69;98804.13;4484486;31;32496;-85
2023/07/25 02:02:38;;;;;;;1.90;0.20;;;;;;;24.68;62.72;98792.81;4477663;31;32914;-85
2023/07/25 02:05:06;;;;;;;3.85;1.60;;;;;;;24.55;63.68;98818.75;4461003;31;33969;-85
2023/07/25 02:07:34;;;;;;;1.15;1.05;;;;;;;24.41;64.63;98809.56;4496374;31;33992;-85
2023/07/25 02:10:02;;;;;;;0.88;0.57;;;;;;;24.43;65.59;98810.22;4479164;32;32444;-85
2023/07/25 02:12:30;;;;;;;0.95;0.82;;;;;;;24.20;65.43;98821.78;4488870;31;33876;-85
2023/07/25 02:14:58;;;;;;;1.35;1.00;;;;;;;24.25;65.32;98850.94;4491082;31;34324;-85
2023/07/25 02:17:25;;;;;;;0.57;0.57;;;;;;;24.41;64.54;98866.22;4479652;31;32755;-85
2023/07/25 02:19:53;;;;;;;1.90;0.93;;;;;;;24.27;65.44;98875.88;4477606;32;33468;-85
2023/07/25 02:22:21;;;;;;;0.22;0.22;;;;;;;24.28;65.51;98893.75;4487630;31;34620;-85
2023/07/25 02:24:48;;;;;;;1.92;1.25;;;;;;;24.23;65.56;98902.38;4498255;31;33995;-86
2023/07/25 02:27:16;;;;;;;0.45;0.45;;;;;;;24.30;65.70;98890.88;4475900;31;33280;-86
2023/07/25 02:29:44;;;;;;;0.60;0.52;;;;;;;24.77;64.27;98826.81;4482635;31;32595;-85
2023/07/25 02:32:12;;;;;;;1.08;0.70;;;;;;;25.09;63.78;98722.25;4493513;31;33534;-84
2023/07/25 02:34:41;;;;;;;2.47;0.75;;;;;;;24.22;66.53;98719.97;4471586;31;33120;-84
2023/07/25 02:37:09;;;;;;;1.27;1.17;;;;;;;23.77;67.46;98756.66;4494870;31;34541;-84
2023/07/25 02:39:37;;;;;;;0.88;0.25;;;;;;;23.96;66.75;98695.22;4499395;31;33444;-84
2023/07/25 02:42:04;;;;;;;1.27;0.82;;;;;;;23.90;67.37;98685.16;4485333;31;33769;-84
2023/07/25 02:44:32;;;;;;;0.40;0.40;;;;;;;23.92;67.65;98685.78;4481817;31;33609;-84
2023/07/25 02:47:00;;;;;;;1.65;0.60;;;;;;;23.80;67.30;98679.16;4492348;31;34501;-84
2023/07/25 02:49:27;;;;;;;0.62;0.62;;;;;;;23.92;66.55;98694.72;4471076;31;32515;-84
2023/07/25 02:51:55;;;;;;;3.75;0.75;;;;;;;23.89;66.46;98705.03;4491206;31;33841;-84
2023/07/25 02:54:23;;;;;;;0.37;0.37;;;;;;;23.98;65.74;98715.59;4495201;31;32537;-84
2023/07/25 02:56:50;;;;;;;0.10;0.10;;;;;;;23.97;65.38;98718.44;4490662;31;32350;-84
2023/07/25 02:59:19;;;;;;;1.55;1.27;;;;;;;23.93;65.94;98722.53;4499721;31;34032;-84
2023/07/25 03:01:47;;;;;;;1.33;1.08;;;;;;;23.92;65.44;98734.31;4473895;32;34550;-85
2023/07/25 03:04:14;;;;;;;0.55;0.30;;;;;;;23.71;65.71;98757.38;4493048;31;34360;-85
2023/07/25 03:06:42;;;;;;;3.00;1.95;;;;;;;23.82;65.01;98771.44;4480024;31;33214;-84
2023/07/25 03:09:10;;;;;;;0.50;0.45;;;;;;;23.84;64.27;98770.28;4481148;31;33204;-84
2023/07/25 03:11:37;;;;;;;0.47;0.43;;;;;;;24.06;63.31;98771.31;4492824;31;33904;-84
2023/07/25 03:14:05;;;;;;;2.47;1.20;;;;;;;23.93;64.14;98771.06;4481675;31;34643;-85
2023/07/25 03:16:40;;;;;;;0.82;0.68;;;;;;;23.73;65.36;98781.44;4476944;31;32351;-84
2023/07/25 03:19:07;;;;;;;0.57;0.57;;;;;;;24.02;63.96;98775.38;4467748;32;32606;-84
2023/07/25 03:21:35;;;;;;;0.75;0.52;;;;;;;23.98;64.25;98779.47;4489090;31;33864;-84
2023/07/25 03:24:03;;;;;;;0.80;0.60;;;;;;;24.01;64.91;98773.69;4486611;31;34192;-85
2023/07/25 03:26:30;;;;;;;0.80;0.73;;;;;;;24.34;63.74;98770.78;4480403;31;32345;-85
2023/07/25 03:28:58;;;;;;;0.32;0.32;;;;;;;24.13;64.36;98782.25;4498724;31;34115;-85
2023/07/25 03:31:26;;;;;;;0.45;0.45;;;;;;;24.47;63.54;98795.34;4492144;31;33115;-85
2023/07/25 03:33:53;;;;;;;0.30;0.30;;;;;;;24.17;64.60;98803.28;4495334;31;34453;-85
2023/07/25 03:36:21;;;;;;;2.10;0.95;;;;;;;24.13;64.53;98820.84;4490111;31;33496;-85
2023/07/25 03:38:48;;;;;;;0.10;0.10;;;;;;;23.99;64.94;98813.50;4482516;31;34174;-85
2023/07/25 03:41:16;;;;;;;0.75;0.75;;;;;;;23.82;65.58;98801.94;4467286;31;32158;-85
2023/07/25 03:43:44;;;;;;;0.80;0.65;;;;;;;23.89;64.73;98792.16;4487882;31;32701;-87
2023/07/25 03:46:11;;;;;;;2.60;1.60;;;;;;;23.95;64.09;98793.28;4491164;31;34322;-85
2023/07/25 03:48:39;;;;;;;0.73;0.70;;;;;;;23.79;64.92;98785.31;4495509;31;34036;-85
2023/07/25 03:51:07;;;;;;;0.55;0.55;;;;;;;24.12;63.88;98780.53;4482184;31;33347;-85
2023/07/25 03:53:34;;;;;;;4.87;0.93;;;;;;;23.94;64.70;98788.94;4491168;31;33899;-85
2023/07/25 03:56:02;;;;;;;1.08;0.30;;;;;;;24.27;63.45;98778.78;4481426;32;33785;-85
2023/07/25 03:58:30;;;;;;;0.40;0.40;;;;;;;24.02;64.29;98788.84;4480265;31;33149;-85
2023/07/25 04:00:58;;;;;;;1.85;0.93;;;;;;;24.11;63.84;98784.25;4491578;31;32290;-85
2023/07/25 04:03:26;;;;;;;0.47;0.47;;;;;;;23.90;64.89;98793.81;4490314;31;34018;-85
2023/07/25 04:05:54;;;;;;;1.00;0.98;;;;;;;23.66;66.03;98813.66;4493886;31;34005;-84
2023/07/25 04:08:21;;;;;;;1.25;1.15;;;;;;;23.80;65.61;98797.75;4479524;31;32065;-85
2023/07/25 04:10:49;;;;;;;4.85;1.37;;;;;;;23.76;65.47;98800.78;4489081;31;32449;-85
2023/07/25 04:13:16;;;;;;;1.12;0.55;;;;;;;23.81;65.30;98796.75;4493602;31;34116;-85
2023/07/25 04:15:44;;;;;;;0.60;0.40;;;;;;;23.88;64.90;98786.91;4477388;31;33901;-85
2023/07/25 04:18:12;;;;;;;1.23;0.68;;;;;;;23.70;65.95;98796.13;4478444;31;33389;-85
2023/07/25 04:20:39;;;;;;;1.08;0.70;;;;;;;23.46;66.45;98805.09;4477636;31;32133;-85
2023/07/25 04:23:07;;;;;;;0.62;0.62;;;;;;;23.39;66.92;98795.19;4478911;31;34202;-85
2023/07/25 04:25:35;;;;;;;1.20;1.12;;;;;;;23.55;66.33;98783.50;4480109;31;33781;-84
2023/07/25 04:28:04;;;;;;;0.55;0.50;;;;;;;23.70;66.34;98781.81;4480874;31;32999;-84
2023/07/25 04:30:31;;;;;;;2.20;1.27;;;;;;;23.75;66.05;98782.94;4480561;31;34156;-84
2023/07/25 04:32:59;;;;;;;2.47;0.73;;;;;;;23.87;65.69;98779.84;4488211;31;34910;-85
2023/07/25 04:35:27;;;;;;;0.90;0.90;;;;;;;23.94;65.89;98784.38;4467768;31;33789;-85
2023/07/25 04:37:54;;;;;;;1.02;1.02;;;;;;;24.02;65.80;98786.16;4479554;31;33265;-84
2023/07/25 04:40:22;;;;;;;0.70;0.70;;;;;;;24.13;65.33;98793.88;4480672;31;33856;-86
2023/07/25 04:42:49;;;;;;;1.00;0.75;;;;;;;24.07;65.58;98799.09;4485749;31;33033;-84
2023/07/25 04:45:17;;;;;;;1.10;0.88;;;;;;;24.01;65.80;98806.06;4476150;31;33920;-84
2023/07/25 04:47:45;;;;;;;1.08;0.55;;;;;;;24.11;65.49;98793.19;4491008;31;33432;-84
2023/07/25 04:50:13;;;;;;;3.35;0.73;;;;;;;24.12;65.57;98789.50;4490506;31;33870;-84
2023/07/25 04:52:53;;;;;;;3.22;0.90;;;;;;;24.40;64.75;98784.44;4479533;31;33306;-84
2023/07/25 04:55:20;;;;;;;0.95;0.77;;;;;;;24.81;63.50;98783.25;4491253;31;34757;-84
2023/07/25 04:57:49;;;;;;;1.00;0.77;;;;;;;25.02;62.45;98778.00;4465302;31;32300;-84
2023/07/25 05:00:17;;;;;;;1.65;1.17;;;;;;;24.68;63.22;98760.41;4496819;31;33863;-84
2023/07/25 05:02:46;;;;;;;0.45;0.17;;;;;;;24.52;64.31;98768.66;4475273;31;32882;-84
2023/07/25 05:05:14;;;;;;;0.95;0.88;;;;;;;25.01;61.96;98766.34;4479195;31;32336;-84
2023/07/25 05:07:41;;;;;;;3.97;1.55;;;;;;;24.86;63.25;98748.44;4480466;31;31952;-84
2023/07/25 05:10:09;;;;;;;1.87;0.77;;;;;;;25.09;62.27;98735.75;4466180;31;34439;-85
2023/07/25 05:12:36;;;;;;;2.33;1.27;;;;;;;25.06;61.96;98725.28;4477783;32;34240;-85
2023/07/25 05:15:05;;;;;;;1.33;0.93;;;;;;;25.07;62.00;98734.22;4478226;31;32000;-84
2023/07/25 05:17:32;;;;;;;1.35;0.57;;;;;;;25.17;62.49;98749.16;4479523;31;33410;-84
2023/07/25 05:20:00;;;;;;;1.52;1.42;;;;;;;25.08;62.18;98744.88;4478665;31;33875;-85
2023/07/25 05:22:28;;;;;;;0.93;0.85;;;;;;;25.15;62.08;98740.38;4475875;31;33237;-84
2023/07/25 05:24:56;;;;;;;1.75;1.48;;;;;;;25.06;61.64;98730.66;4491358;31;32318;-85
2023/07/25 05:27:23;;;;;;;1.12;0.90;;;;;;;25.20;60.97;98732.56;4473772;31;179158;-86
2023/07/25 05:29:51;;;;;;;1.65;1.10;;;;;;;25.43;60.01;98726.22;4495902;31;33762;-85
2023/07/25 05:32:21;;;;;;;1.12;0.82;;;;;;;25.33;60.35;98728.37;4493341;31;34827;-86
2023/07/25 05:34:49;;;;;;;0.77;0.77;;;;;;;25.38;60.27;98732.19;4477753;32;33851;-86
2023/07/25 05:37:21;;;;;;;4.28;2.78;;;;;;;25.35;60.66;98726.31;4473469;32;33423;-86
2023/07/25 05:39:52;;;;;;;1.23;0.90;;;;;;;25.68;59.17;98724.88;4484030;31;34303;-86
2023/07/25 05:42:20;;;;;;;0.52;0.52;;;;;;;25.62;59.89;98724.78;4473774;31;34647;-86
2023/07/25 05:44:47;;;;;;;15.52;1.15;;;;;;;25.67;60.53;98731.31;4484454;31;34214;-86
2023/07/25 05:47:15;;;;;;;0.82;0.73;;;;;;;25.44;60.41;98734.13;4475494;31;33157;-86
2023/07/25 05:49:42;;;;;;;0.43;0.43;;;;;;;25.61;59.42;98734.78;4489627;31;33724;-86
2023/07/25 05:52:10;;;;;;;3.42;1.23;;;;;;;25.87;58.78;98749.66;4483337;31;32949;-86
2023/07/25 05:54:39;;;;;;;0.40;0.40;;;;;;;26.00;58.12;98757.94;4473858;32;33391;-86
2023/07/25 05:57:07;;;;;;;1.20;1.10;;;;;;;26.11;57.54;98768.25;4489878;31;33260;-86
2023/07/25 05:59:34;;;;;;;0.75;0.75;;;;;;;26.30;57.47;98764.94;4474702;32;33873;-86
2023/07/25 06:02:03;;;;;;;0.47;0.47;;;;;;;26.55;57.42;98765.38;4479593;31;33642;-87
2023/07/25 06:04:31;;;;;;;3.20;1.05;;;;;;;26.51;56.48;98764.09;4474138;31;32470;-86
2023/07/25 06:06:59;;;;;;;2.50;0.62;;;;;;;26.56;56.06;98760.81;4493422;31;33676;-86
2023/07/25 06:09:27;;;;;;;6.05;1.27;;;;;;;26.75;55.96;98754.72;4484194;32;33600;-86
2023/07/25 06:11:55;;;;;;;1.20;0.55;;;;;;;26.81;55.62;98743.09;4458529;32;32879;-86
2023/07/25 06:14:23;;;;;;;0.17;0.17;;;;;;;26.94;55.28;98734.25;4490513;31;33809;-86
2023/07/25 06:16:50;;;;;;;1.45;1.12;;;;;;;27.01;55.22;98732.44;4474029;32;34146;-87
2023/07/25 06:19:18;;;;;;;1.65;1.52;;;;;;;27.03;55.23;98729.50;4486227;31;33682;-87
2023/07/25 06:21:46;;;;;;;1.55;1.08;;;;;;;27.05;54.76;98732.84;4471376;32;33476;-87
2023/07/25 06:24:13;;;;;;;0.50;0.47;;;;;;;27.12;53.08;98725.63;4477243;31;33927;-85
2023/07/25 06:26:41;;;;;;;2.35;0.77;;;;;;;27.15;53.35;98721.69;4495408;31;33420;-85
2023/07/25 06:29:09;;;;;;;0.85;0.40;;;;;;;27.22;53.08;98723.41;4476837;31;33808;-85
2023/07/25 06:31:37;;;;;;;0.52;0.50;;;;;;;27.17;53.23;98715.03;4470004;31;33365;-86
2023/07/25 06:34:04;;;;;;;0.65;0.43;;;;;;;27.48;52.59;98714.53;4482553;31;34396;-86
2023/07/25 06:36:32;;;;;;;0.40;0.40;;;;;;;27.80;52.76;98702.19;4493732;31;33528;-86
2023/07/25 06:38:59;;;;;;;0.37;0.37;;;;;;;27.93;49.53;98698.69;4491675;31;33758;-86
2023/07/25 06:41:27;;;;;;;0.65;0.65;;;;;;;27.76;50.58;98692.78;4473982;31;33290;-86
2023/07/25 06:43:55;;;;;;;1.98;1.35;;;;;;;27.78;50.53;98693.44;4487677;31;33564;-85
2023/07/25 06:46:24;;;;;;;0.00;0.00;;;;;;;27.88;49.92;98687.59;4466905;31;31749;-85
2023/07/25 06:48:52;;;;;;;0.98;0.43;;;;;;;27.46;50.35;98692.25;4477707;31;32806;-88
2023/07/25 06:51:20;;;;;;;0.10;0.10;;;;;;;27.57;48.28;98685.38;4485250;31;34587;-88
2023/07/25 06:53:48;;;;;;;2.12;1.15;;;;;;;27.74;47.47;98681.31;4475266;31;31399;-89
2023/07/25 06:56:16;;;;;;;0.37;0.37;;;;;;;28.06;47.41;98662.59;4462867;31;32117;-88
2023/07/25 06:58:43;;;;;;;0.62;0.62;;;;;;;28.36;46.92;98656.78;4477114;31;33059;-88
2023/07/25 07:01:10;;;;;;;2.37;0.35;;;;;;;28.40;46.17;98658.06;4480012;31;34097;-89
2023/07/25 07:03:38;;;;;;;0.55;0.55;;;;;;;28.46;46.65;98655.31;4475146;31;33935;-88
2023/07/25 07:06:06;;;;;;;2.60;1.42;;;;;;;28.57;46.06;98645.69;4474042;31;32162;-88
2023/07/25 07:08:34;;;;;;;0.15;0.15;;;;;;;28.55;46.71;98634.22;4475521;31;33596;-89
2023/07/25 07:11:03;;;;;;;2.08;1.48;;;;;;;28.68;45.40;98634.22;4489897;31;34749;-89
2023/07/25 07:13:30;;;;;;;1.35;1.08;;;;;;;28.96;45.12;98625.81;4465497;31;33221;-88
2023/07/25 07:15:58;;;;;;;1.30;0.70;;;;;;;29.31;44.50;98615.41;4479360;31;32654;-89
2023/07/25 07:18:26;;;;;;;0.55;0.55;;;;;;;29.48;44.67;98604.88;4476240;31;33696;-88
2023/07/25 07:20:53;;;;;;;1.85;1.00;;;;;;;29.68;42.34;98610.22;4464274;31;32673;-88
2023/07/25 07:23:21;;;;;;;1.02;0.93;;;;;;;29.09;43.74;98605.87;4466225;31;32649;-88
2023/07/25 07:25:53;;;;;;;1.33;0.57;;;;;;;28.72;44.97;98610.16;4465076;31;33077;-89
2023/07/25 07:28:25;;;;;;;1.80;1.00;;;;;;;29.42;44.25;98594.03;4478139;31;34462;-88
2023/07/25 07:30:53;;;;;;;0.57;0.43;;;;;;;29.62;42.95;98589.31;4476667;31;33708;-87
2023/07/25 07:33:33;;;;;;;0.52;0.52;;;;;;;29.43;43.23;98591.09;4477231;31;32941;-88
2023/07/25 07:36:01;;;;;;;0.57;0.50;;;;;;;29.65;42.71;98586.19;4485514;31;33069;-87
2023/07/25 07:38:29;;;;;;;1.98;0.93;;;;;;;29.55;43.06;98585.84;4476473;31;32356;-87
2023/07/25 07:40:57;;;;;;;0.95;0.73;;;;;;;29.67;45.12;98580.50;4476999;31;33636;-88
2023/07/25 07:43:25;;;;;;;0.85;0.85;;;;;;;29.81;45.25;98582.91;4477079;31;32662;-88
2023/07/25 07:45:52;;;;;;;0.85;0.50;;;;;;;29.56;45.75;98598.37;4466633;31;32595;-88
2023/07/25 07:48:20;;;;;;;1.48;0.52;;;;;;;29.30;47.23;98602.88;4479194;31;32884;-89
2023/07/25 07:50:49;;;;;;;0.28;0.28;;;;;;;29.72;47.15;98600.59;4491226;31;33690;-89
2023/07/25 07:53:17;;;;;;;0.30;0.30;;;;;;;29.79;45.61;98595.09;4476273;31;32318;-90
2023/07/25 07:55:45;;;;;;;1.70;0.65;;;;;;;29.55;46.63;98588.56;4476905;31;34262;-89
2023/07/25 07:58:13;;;;;;;0.65;0.65;;;;;;;29.70;47.22;98597.22;4465111;31;32983;-89
2023/07/25 08:00:41;;;;;;;0.77;0.57;;;;;;;29.44;46.28;98597.38;4489169;31;34675;-89
2023/07/25 08:03:08;;;;;;;0.90;0.60;;;;;;;29.01;47.09;98606.16;4477470;31;33484;-87
2023/07/25 08:05:36;;;;;;;4.22;1.40;;;;;;;28.92;48.18;98610.94;4491364;31;33104;-86
2023/07/25 08:08:04;;;;;;;0.60;0.60;;;;;;;28.91;47.44;98603.00;4465381;31;32840;-87
2023/07/25 08:10:32;;;;;;;11.02;1.73;;;;;;;29.00;47.93;98597.13;4475798;31;33991;-87
2023/07/25 08:13:00;;;;;;;0.45;0.45;;;;;;;28.74;48.27;98614.34;4482195;31;34270;-87
2023/07/25 08:15:27;;;;;;;0.57;0.50;;;;;;;28.65;47.80;98604.75;4481716;31;34421;-87
2023/07/25 08:17:55;;;;;;;0.25;0.25;;;;;;;28.49;47.98;98594.34;4483361;31;33911;-87
2023/07/25 08:20:23;;;;;;;1.37;0.90;;;;;;;28.70;47.47;98591.34;4476379;31;34691;-87
2023/07/25 08:22:51;;;;;;;0.73;0.20;;;;;;;28.32;47.95;98583.03;4467788;31;32956;-87
2023/07/25 08:25:18;;;;;;;1.02;0.88;;;;;;;28.38;48.39;98581.41;4479198;31;31965;-90
2023/07/25 08:27:46;;;;;;;0.88;0.62;;;;;;;28.11;48.43;98578.69;4463556;31;34407;-87
2023/07/25 08:30:14;;;;;;;0.93;0.60;;;;;;;28.08;48.87;98571.78;4491030;31;33375;-87
2023/07/25 08:32:42;;;;;;;1.15;0.77;;;;;;;28.02;48.91;98560.94;4478105;31;33881;-86
2023/07/25 08:35:09;;;;;;;0.50;0.50;;;;;;;28.02;49.19;98563.66;4475585;31;34285;-87
2023/07/25 08:37:37;;;;;;;0.05;0.05;;;;;;;27.81;50.51;98575.53;4464606;31;34304;-87
2023/07/25 08:40:06;;;;;;;8.10;2.00;;;;;;;27.94;51.00;98569.28;4475953;31;33206;-87
2023/07/25 08:42:35;;;;;;;2.20;1.15;;;;;;;27.74;52.85;98574.72;4489768;31;32958;-87
2023/07/25 08:45:06;;;;;;;0.35;0.35;;;;;;;27.57;54.06;98574.22;4474603;31;32927;-87
2023/07/25 08:47:40;;;;;;;3.62;1.23;;;;;;;27.46;54.91;98577.53;4474433;31;32271;-88
2023/07/25 08:50:15;;;;;;;0.20;0.20;;;;;;;27.41;55.06;98571.91;4477868;31;32157;-91
2023/07/25 08:52:49;;;;;;;1.33;1.10;;;;;;;27.14;55.98;98563.69;4477751;31;33724;-87
2023/07/25 08:55:17;;;;;;;0.50;0.50;;;;;;;27.29;55.47;98591.44;4478657;31;32025;-87
2023/07/25 08:57:45;;;;;;;1.52;0.75;;;;;;;27.10;56.08;98605.78;4475011;32;33425;-87
2023/07/25 09:00:13;;;;;;;0.73;0.73;;;;;;;27.13;56.08;98616.22;4463874;31;32596;-87
2023/07/25 09:02:42;;;;;;;1.37;1.08;;;;;;;27.25;56.26;98611.91;4465549;31;34238;-87
2023/07/25 09:05:10;;;;;;;0.47;0.47;;;;;;;27.02;57.93;98630.31;4475238;31;34128;-87
2023/07/25 09:07:37;;;;;;;0.82;0.65;;;;;;;26.96;58.14;98696.09;4476089;31;33932;-87
2023/07/25 09:10:05;;;;;;;1.20;1.05;;;;;;;27.06;57.65;98781.44;4476008;31;32969;-90
2023/07/25 09:12:34;;;;;;;1.20;0.98;;;;;;;27.28;58.15;98893.34;4478946;31;33287;-90
2023/07/25 09:15:06;;;;;;;1.17;0.75;;;;;;;26.79;59.03;98937.47;4477781;32;33711;-89
2023/07/25 09:17:34;;;;;;;1.20;0.70;;;;;;;26.52;59.65;98965.25;4465261;32;32906;-89
2023/07/25 09:20:03;;;;;;;0.73;0.73;;;;;;;25.97;61.54;98943.09;4463488;31;33408;-90
2023/07/25 09:22:46;;;;;;;0.95;0.50;;;;;;;25.44;64.05;98914.38;4471179;31;34256;-90
2023/07/25 09:25:16;;;;;;;1.35;0.65;;;;;;;25.73;63.62;98889.22;4473793;31;32215;-90
2023/07/25 09:27:53;;;;;;;0.30;0.20;;;;;;;25.54;63.75;98885.22;4462322;32;32402;-90
2023/07/25 09:30:26;;;;;;;0.40;0.40;;;;;;;25.39;64.51;98878.94;4472129;32;33440;-90
2023/07/25 09:32:56;;;;;;;1.05;0.95;;;;;;;25.56;64.32;98893.16;4465459;32;32864;-90
2023/07/25 09:35:25;;;;;;;1.33;0.82;;;;;;;25.58;64.07;98875.69;4472210;32;33770;-90
2023/07/25 09:37:54;;;;;;;0.90;0.88;;;;;;;24.80;66.37;98881.47;4459147;32;32657;-90
2023/07/25 09:40:24;;;;;;;2.70;0.93;;;;;;;25.12;65.12;98858.81;4458982;32;32360;-90
2023/07/25 09:42:52;;;;;;;0.62;0.62;;;;;;;25.32;64.21;98859.09;4459615;32;32758;-90
2023/07/25 09:45:20;;;;;;;1.65;0.90;;;;;;;24.81;64.56;98864.25;4459099;32;32013;-90
2023/07/25 09:47:51;;;;;;;0.22;0.22;;;;;;;24.75;64.42;98850.47;4471844;32;34258;-90
2023/07/25 09:50:19;;;;;;;3.67;0.98;;;;;;;24.86;64.26;98818.66;4459158;32;33172;-89
2023/07/25 09:52:46;;;;;;;1.55;0.65;;;;;;;24.97;63.34;98796.59;4458853;32;33551;-90
2023/07/25 09:55:14;;;;;;;0.35;0.35;;;;;;;24.83;64.29;98789.28;4459758;32;32675;-90
2023/07/25 09:57:42;;;;;;;1.55;0.65;;;;;;;24.42;66.37;98751.87;4459526;32;32991;-90
2023/07/25 10:00:10;;;;;;;1.35;0.90;;;;;;;24.23;67.96;98732.44;4477531;31;34039;-92
2023/07/25 10:02:39;;;;;;;0.35;0.35;;;;;;;24.48;65.93;98732.25;4462447;31;32753;-92
2023/07/25 10:05:07;;;;;;;1.17;1.08;;;;;;;24.52;65.97;98742.50;4478724;31;33498;-93
2023/07/25 10:07:35;;;;;;;6.43;1.12;;;;;;;24.37;67.66;98740.78;4490445;31;34196;-92
2023/07/25 10:10:03;;;;;;;0.82;0.82;;;;;;;24.27;67.14;98746.41;4466287;31;33454;-92
2023/07/25 10:12:32;;;;;;;1.15;0.60;;;;;;;24.08;68.25;98773.84;4467489;31;32214;-92
2023/07/25 10:15:00;;;;;;;2.15;1.80;;;;;;;24.17;68.56;98792.50;4467621;31;32178;-92
2023/07/25 10:17:29;;;;;;;0.17;0.17;;;;;;;24.36;67.53;98799.31;4476821;31;33140;-92
2023/07/25 10:19:58;;;;;;;0.43;0.43;;;;;;;24.65;66.44;98817.47;4489092;31;34002;-92
2023/07/25 10:22:37;;;;;;;2.17;0.52;;;;;;;24.59;66.17;98837.06;4465630;31;33194;-92
2023/07/25 10:25:19;;;;;;;0.45;0.45;;;;;;;24.23;67.62;98848.41;4470381;31;30585;-91
2023/07/25 10:27:47;;;;;;;1.10;0.65;;;;;;;24.25;66.89;98830.19;4477450;31;33095;-90
2023/07/25 10:30:26;;;;;;;0.30;0.30;;;;;;;24.13;67.52;98809.22;4467572;31;33219;-92
2023/07/25 10:32:58;;;;;;;0.95;0.55;;;;;;;24.40;67.09;98797.94;4478968;31;32746;-92
2023/07/25 10:35:46;;;;;;;1.85;0.95;;;;;;;24.63;66.85;98784.41;4478192;31;32617;-92
2023/07/25 10:38:15;;;;;;;0.30;0.30;;;;;;;24.45;68.21;98762.28;4476685;31;32506;-92
2023/07/25 10:40:52;;;;;;;0.30;0.30;;;;;;;24.14;69.09;98752.38;4465479;31;32929;-91
2023/07/25 10:43:48;;;;;;;2.08;0.77;;;;;;;24.73;66.32;98746.38;4473858;31;32836;-91
2023/07/25 10:46:19;;;;;;;0.28;0.17;;;;;;;24.24;67.70;98728.72;4476248;31;32650;-92
2023/07/25 10:48:52;;;;;;;0.17;0.17;;;;;;;24.80;64.55;98722.19;4465807;31;33177;-92
2023/07/25 10:51:21;;;;;;;0.62;0.62;;;;;;;25.18;62.37;98698.69;4481325;31;34028;-91
2023/07/25 10:54:09;;;;;;;1.37;1.00;;;;;;;24.96;64.94;98708.50;4479480;31;32908;-92
2023/07/25 10:56:37;;;;;;;0.55;0.55;;;;;;;25.22;64.19;98695.41;4460594;31;32804;-91
2023/07/25 10:59:14;;;;;;;0.52;0.35;;;;;;;25.43;63.66;98726.22;4475478;31;33510;-92
2023/07/25 11:01:44;;;;;;;0.20;0.20;;;;;;;25.68;62.95;98716.75;4473227;31;33342;-91
2023/07/25 11:04:26;;;;;;;1.33;0.55;;;;;;;26.17;59.97;98720.66;4463215;31;32747;-92
2023/07/25 11:07:14;;;;;;;1.98;1.10;;;;;;;26.47;59.33;98713.25;4480467;31;32615;-90
2023/07/25 11:09:43;;;;;;;0.40;0.37;;;;;;;26.04;60.94;98714.06;4486302;31;33414;-93
2023/07/25 11:12:32;;;;;;;2.47;0.65;;;;;;;26.32;60.45;98694.38;4472245;31;33092;-94
2023/07/25 11:15:19;;;;;;;0.43;0.43;;;;;;;26.47;57.49;98653.69;4472127;31;33199;-93
2023/07/25 11:18:15;;;;;;;1.00;1.00;;;;;;;26.31;58.20;98622.34;4470298;31;32200;-91
2023/07/25 11:21:05;;;;;;;0.50;0.50;;;;;;;26.20;58.68;98630.97;4465898;32;33084;-93
2023/07/25 11:24:03;;;;;;;0.35;0.32;;;;;;;26.57;57.63;98615.47;4471951;31;32870;-92
2023/07/25 11:26:31;;;;;;;2.05;0.95;;;;;;;26.60;57.50;98599.66;4468192;31;32973;-93
2023/07/25 11:29:07;;;;;;;0.15;0.15;;;;;;;26.16;58.54;98603.50;4464198;31;32317;-93
2023/07/25 11:31:36;;;;;;;0.70;0.68;;;;;;;25.85;62.14;98608.41;4465130;31;32824;-93
2023/07/25 11:34:09;;;;;;;0.77;0.77;;;;;;;26.03;60.97;98603.38;4468898;31;33859;-93
2023/07/25 11:36:39;;;;;;;0.52;0.52;;;;;;;26.44;58.63;98608.06;4479108;31;33307;-92
2023/07/25 11:39:10;;;;;;;;;;;;;;;26.10;59.07;98601.53;4467440;31;32557;-92
2023/07/25 11:41:38;;;;;;;0.45;0.40;;;;;;;26.34;57.71;98592.16;4465039;31;33232;-93
2023/07/25 11:44:12;;;;;;;0.47;0.47;;;;;;;25.90;60.16;98582.44;4470261;31;33265;-93